Time;durP1;ratioP1;P1;durP2;ratioP2;P2;SDS_P1;SDS_P2;PMS_P1;PMS_P2;Temp;Humidity;BMP_temperature;BMP_pressure;BME280_temperature;BME280_humidity;BME280_pressure;Samples;Min_cycle;Max_cycle;Signal;HPM_P1;HPM_P2
2022/04/19 00:01:51;;;;;;;3.72;3.33;;;;;;;;;;4942199;29;20199;-70
2022/04/19 00:04:19;;;;;;;6.70;3.70;;;;;;;;;;4938738;29;20682;-69
2022/04/19 00:06:46;;;;;;;4.05;3.17;;;;;;;;;;4927529;29;20666;-69
2022/04/19 00:09:13;;;;;;;3.97;3.60;;;;;;;;;;4947239;29;20205;-70
2022/04/19 00:11:40;;;;;;;4.10;3.25;;;;;;;;;;4939163;29;20199;-70
2022/04/19 00:14:08;;;;;;;4.65;3.80;;;;;;;;;;4945563;29;20281;-72
2022/04/19 00:16:38;;;;;;;3.90;3.08;;;;;;;;;;4937699;29;20218;-70
2022/04/19 00:19:06;;;;;;;4.20;3.80;;;;;;;;;;4933018;29;20286;-70
2022/04/19 00:21:33;;;;;;;4.82;3.65;;;;;;;;;;4938153;29;20563;-70
2022/04/19 00:24:00;;;;;;;3.35;3.05;;;;;;;;;;4938451;29;20198;-69
2022/04/19 00:26:27;;;;;;;4.00;3.63;;;;;;;;;;4946896;29;20198;-70
2022/04/19 00:28:54;;;;;;;4.03;3.50;;;;;;;;;;4942541;29;20230;-70
2022/04/19 00:31:22;;;;;;;3.38;3.10;;;;;;;;;;4938152;29;20195;-70
2022/04/19 00:33:50;;;;;;;3.80;3.17;;;;;;;;;;4934117;29;20586;-70
2022/04/19 00:36:18;;;;;;;3.97;3.58;;;;;;;;;;4937789;29;20582;-70
2022/04/19 00:38:45;;;;;;;3.85;3.05;;;;;;;;;;4935465;29;20227;-70
2022/04/19 00:41:12;;;;;;;3.55;2.80;;;;;;;;;;4940788;29;20445;-70
2022/04/19 00:43:40;;;;;;;4.78;3.67;;;;;;;;;;4946380;29;20677;-70
2022/04/19 00:46:07;;;;;;;3.88;3.25;;;;;;;;;;4937707;29;20238;-70
2022/04/19 00:48:34;;;;;;;3.40;3.10;;;;;;;;;;4933556;29;20203;-70
2022/04/19 00:51:02;;;;;;;3.53;3.20;;;;;;;;;;4937361;29;20222;-70
2022/04/19 00:53:29;;;;;;;5.40;3.95;;;;;;;;;;4937326;29;20571;-70
2022/04/19 00:55:57;;;;;;;3.85;3.40;;;;;;;;;;4935067;29;20210;-70
2022/04/19 00:58:24;;;;;;;3.35;2.65;;;;;;;;;;4926730;29;20571;-70
2022/04/19 01:00:51;;;;;;;5.30;3.55;;;;;;;;;;4933069;29;20843;-70
2022/04/19 01:03:21;;;;;;;4.35;3.95;;;;;;;;;;4942526;29;20213;-69
2022/04/19 01:05:51;;;;;;;4.07;3.47;;;;;;;;;;4927492;29;20199;-69
2022/04/19 01:08:20;;;;;;;3.78;3.40;;;;;;;;;;4946195;29;20215;-70
2022/04/19 01:10:47;;;;;;;3.40;3.10;;;;;;;;;;4942642;29;20217;-69
2022/04/19 01:13:17;;;;;;;4.82;3.85;;;;;;;;;;4934980;29;20597;-70
2022/04/19 01:15:46;;;;;;;4.05;3.65;;;;;;;;;;4940501;29;20210;-70
2022/04/19 01:18:13;;;;;;;3.90;3.50;;;;;;;;;;4932880;29;20253;-70
2022/04/19 01:20:41;;;;;;;4.65;3.45;;;;;;;;;;4933923;29;20590;-69
2022/04/19 01:23:09;;;;;;;3.50;3.20;;;;;;;;;;4932447;29;20738;-71
2022/04/19 01:25:37;;;;;;;4.47;3.72;;;;;;;;;;4940945;29;20657;-71
2022/04/19 01:28:04;;;;;;;3.28;2.97;;;;;;;;;;4936591;29;20575;-70
2022/04/19 01:30:32;;;;;;;4.25;3.85;;;;;;;;;;4946106;29;20549;-72
2022/04/19 01:33:00;;;;;;;4.53;4.05;;;;;;;;;;4934399;29;20218;-71
2022/04/19 01:35:27;;;;;;;4.10;3.65;;;;;;;;;;4930532;29;20725;-71
2022/04/19 01:37:54;;;;;;;5.63;4.90;;;;;;;;;;4934238;29;20629;-70
2022/04/19 01:40:23;;;;;;;3.67;3.35;;;;;;;;;;4930364;29;20218;-70
2022/04/19 01:42:52;;;;;;;4.05;3.75;;;;;;;;;;4935819;29;20210;-70
2022/04/19 01:45:20;;;;;;;4.13;3.78;;;;;;;;;;4939712;29;20562;-71
2022/04/19 01:47:47;;;;;;;4.30;3.90;;;;;;;;;;4931932;29;20203;-70
2022/04/19 01:50:15;;;;;;;3.42;3.13;;;;;;;;;;4936551;29;20201;-70
2022/04/19 01:52:43;;;;;;;5.28;3.58;;;;;;;;;;4935712;29;20229;-70
2022/04/19 01:55:13;;;;;;;4.32;3.92;;;;;;;;;;4934082;29;20570;-71
2022/04/19 01:57:42;;;;;;;4.70;4.25;;;;;;;;;;4933837;29;20222;-70
2022/04/19 02:00:09;;;;;;;10.48;4.30;;;;;;;;;;4932947;29;20211;-71
2022/04/19 02:02:36;;;;;;;5.22;4.13;;;;;;;;;;4930762;29;20230;-71
2022/04/19 02:05:04;;;;;;;4.55;4.07;;;;;;;;;;4931465;29;20610;-68
2022/04/19 02:07:31;;;;;;;7.28;4.28;;;;;;;;;;4936131;29;22248;-68
2022/04/19 02:09:59;;;;;;;4.45;4.05;;;;;;;;;;4935926;29;20199;-69
2022/04/19 02:12:26;;;;;;;4.50;4.10;;;;;;;;;;4934586;28;20211;-69
2022/04/19 02:14:54;;;;;;;4.40;4.00;;;;;;;;;;4936009;29;20215;-70
2022/04/19 02:17:23;;;;;;;6.05;4.13;;;;;;;;;;4932668;29;20222;-70
2022/04/19 02:19:50;;;;;;;3.67;3.38;;;;;;;;;;4932513;29;20218;-70
2022/04/19 02:22:22;;;;;;;4.35;3.95;;;;;;;;;;4937162;29;20199;-69
2022/04/19 02:24:49;;;;;;;4.47;3.67;;;;;;;;;;4941346;29;20661;-69
2022/04/19 02:27:17;;;;;;;5.18;3.78;;;;;;;;;;4937097;29;20218;-69
2022/04/19 02:29:44;;;;;;;3.92;3.58;;;;;;;;;;4939136;29;20206;-70
2022/04/19 02:32:13;;;;;;;4.63;3.58;;;;;;;;;;4933451;29;20285;-70
2022/04/19 02:34:40;;;;;;;4.60;4.18;;;;;;;;;;4930614;29;20206;-70
2022/04/19 02:37:07;;;;;;;5.38;4.82;;;;;;;;;;4936292;29;20218;-69
2022/04/19 02:39:36;;;;;;;4.28;3.83;;;;;;;;;;4935914;28;20273;-70
2022/04/19 02:42:04;;;;;;;5.45;4.15;;;;;;;;;;4929984;29;20213;-69
2022/04/19 02:44:31;;;;;;;3.42;3.13;;;;;;;;;;4938700;29;20214;-69
2022/04/19 02:46:58;;;;;;;4.13;3.55;;;;;;;;;;4937767;29;20218;-69
2022/04/19 02:49:26;;;;;;;4.43;3.50;;;;;;;;;;4930531;29;20205;-69
2022/04/19 02:51:55;;;;;;;4.80;4.35;;;;;;;;;;4935085;29;20202;-69
2022/04/19 02:54:22;;;;;;;4.82;4.30;;;;;;;;;;4936062;29;20194;-70
2022/04/19 02:56:49;;;;;;;4.32;3.92;;;;;;;;;;4932906;29;21327;-69
2022/04/19 02:59:16;;;;;;;4.70;4.15;;;;;;;;;;4932090;29;20594;-69
2022/04/19 03:01:43;;;;;;;4.13;3.72;;;;;;;;;;4930850;29;20203;-71
2022/04/19 03:04:10;;;;;;;4.25;3.83;;;;;;;;;;4929234;29;20202;-69
2022/04/19 03:06:38;;;;;;;7.03;4.22;;;;;;;;;;4937024;29;20192;-69
2022/04/19 03:09:05;;;;;;;4.25;3.83;;;;;;;;;;4934325;29;20197;-70
2022/04/19 03:11:33;;;;;;;3.90;3.53;;;;;;;;;;4928802;29;20206;-70
2022/04/19 03:14:00;;;;;;;6.45;3.40;;;;;;;;;;4934760;29;20203;-70
2022/04/19 03:16:27;;;;;;;4.22;3.83;;;;;;;;;;4933583;29;21509;-70
2022/04/19 03:18:54;;;;;;;4.30;3.90;;;;;;;;;;4934153;29;20206;-71
2022/04/19 03:21:21;;;;;;;4.95;3.70;;;;;;;;;;4932609;29;20218;-71
2022/04/19 03:29:19;;;;;;;4.85;4.35;;;;;;;;;;4932896;29;20202;-70
2022/04/19 03:31:46;;;;;;;6.50;4.30;;;;;;;;;;4924296;29;20649;-70
2022/04/19 03:34:13;;;;;;;5.60;5.10;;;;;;;;;;4935180;29;20191;-69
2022/04/19 03:36:40;;;;;;;4.35;3.95;;;;;;;;;;4942701;29;20198;-69
2022/04/19 03:39:08;;;;;;;5.10;4.43;;;;;;;;;;4937354;28;20226;-69
2022/04/19 03:41:35;;;;;;;4.95;3.65;;;;;;;;;;4933229;29;20199;-70
2022/04/19 03:44:03;;;;;;;5.30;4.80;;;;;;;;;;4937904;29;20195;-71
2022/04/19 03:46:30;;;;;;;3.65;3.35;;;;;;;;;;4933832;29;20234;-70
2022/04/19 03:48:57;;;;;;;4.28;3.83;;;;;;;;;;4931304;29;20214;-70
2022/04/19 03:51:24;;;;;;;7.28;4.35;;;;;;;;;;4934904;29;20199;-68
2022/04/19 03:53:52;;;;;;;4.15;3.72;;;;;;;;;;4935622;29;20203;-69
2022/04/19 03:56:22;;;;;;;4.15;3.70;;;;;;;;;;4940692;29;20547;-69
2022/04/19 03:58:49;;;;;;;6.80;5.00;;;;;;;;;;4934056;29;20214;-69
2022/04/19 04:01:16;;;;;;;6.53;4.50;;;;;;;;;;4927256;29;20199;-69
2022/04/19 04:03:43;;;;;;;5.18;4.00;;;;;;;;;;4937554;29;20368;-68
2022/04/19 04:06:10;;;;;;;5.93;4.25;;;;;;;;;;4937188;29;20569;-68
2022/04/19 04:08:37;;;;;;;4.18;3.45;;;;;;;;;;4938009;29;20214;-68
2022/04/19 04:11:04;;;;;;;6.03;4.50;;;;;;;;;;4926958;29;20201;-69
2022/04/19 04:13:32;;;;;;;4.85;4.43;;;;;;;;;;4927794;29;20195;-69
2022/04/19 04:16:00;;;;;;;4.68;4.28;;;;;;;;;;4935674;29;20214;-69
2022/04/19 04:18:27;;;;;;;7.28;4.10;;;;;;;;;;4932485;29;20724;-68
2022/04/19 04:20:54;;;;;;;4.65;4.20;;;;;;;;;;4925963;29;20206;-70
2022/04/19 04:23:21;;;;;;;5.82;5.05;;;;;;;;;;4933999;29;20206;-69
2022/04/19 04:25:48;;;;;;;5.93;4.20;;;;;;;;;;4932730;29;20198;-69
2022/04/19 04:28:15;;;;;;;6.03;5.05;;;;;;;;;;4931398;29;20199;-69
2022/04/19 04:30:43;;;;;;;4.57;3.88;;;;;;;;;;4936706;29;20203;-69
2022/04/19 04:33:10;;;;;;;10.00;4.55;;;;;;;;;;4934195;29;20195;-69
2022/04/19 04:35:37;;;;;;;6.57;4.57;;;;;;;;;;4932658;29;20210;-68
2022/04/19 04:38:04;;;;;;;4.38;3.97;;;;;;;;;;4938054;29;20598;-70
2022/04/19 04:40:31;;;;;;;4.45;4.00;;;;;;;;;;4932989;28;20231;-70
2022/04/19 04:42:58;;;;;;;5.50;5.00;;;;;;;;;;4934668;29;20210;-70
2022/04/19 04:45:26;;;;;;;4.88;4.40;;;;;;;;;;4939223;29;21533;-69
2022/04/19 04:50:39;;;;;;;5.70;4.55;;;;;;;;;;4935667;29;20218;-69
2022/04/19 04:53:06;;;;;;;4.47;4.07;;;;;;;;;;4936441;29;20202;-69
2022/04/19 04:55:33;;;;;;;6.22;4.25;;;;;;;;;;4934231;29;20206;-68
2022/04/19 04:58:01;;;;;;;7.80;4.90;;;;;;;;;;4936504;29;20218;-68
2022/04/19 05:00:29;;;;;;;6.20;4.63;;;;;;;;;;4935884;29;20651;-69
2022/04/19 05:02:57;;;;;;;9.43;5.63;;;;;;;;;;4932306;29;20308;-68
2022/04/19 05:05:24;;;;;;;6.65;4.60;;;;;;;;;;4932431;29;20202;-69
2022/04/19 05:07:52;;;;;;;5.72;5.20;;;;;;;;;;4938479;29;20213;-69
2022/04/19 05:10:19;;;;;;;4.40;4.00;;;;;;;;;;4935245;29;20285;-69
2022/04/19 05:12:46;;;;;;;4.70;4.30;;;;;;;;;;4921166;29;20199;-70
2022/04/19 05:15:13;;;;;;;7.32;5.15;;;;;;;;;;4939571;29;20206;-69
2022/04/19 05:17:40;;;;;;;7.68;5.10;;;;;;;;;;4934662;29;20227;-71
2022/04/19 05:20:09;;;;;;;6.40;5.40;;;;;;;;;;4936627;29;20668;-69
2022/04/19 05:22:37;;;;;;;5.63;5.03;;;;;;;;;;4928081;29;20234;-71
2022/04/19 05:25:04;;;;;;;6.55;4.60;;;;;;;;;;4935354;29;20249;-72
2022/04/19 05:27:31;;;;;;;5.63;5.05;;;;;;;;;;4937169;29;20202;-69
2022/04/19 05:29:58;;;;;;;5.68;4.85;;;;;;;;;;4935263;29;20207;-71
2022/04/19 05:32:27;;;;;;;7.03;4.95;;;;;;;;;;4932541;29;20702;-70
2022/04/19 05:34:54;;;;;;;4.95;4.43;;;;;;;;;;4934677;29;20695;-70
2022/04/19 05:37:23;;;;;;;5.60;4.32;;;;;;;;;;4937045;29;20191;-70
2022/04/19 05:39:50;;;;;;;5.97;3.83;;;;;;;;;;4933220;29;20226;-70
2022/04/19 05:42:17;;;;;;;6.68;4.78;;;;;;;;;;4931942;29;20649;-70
2022/04/19 05:44:44;;;;;;;7.07;5.57;;;;;;;;;;4935776;29;20202;-70
2022/04/19 05:47:11;;;;;;;5.38;4.88;;;;;;;;;;4937509;29;20281;-70
2022/04/19 05:49:38;;;;;;;7.38;6.10;;;;;;;;;;4927709;29;20206;-70
2022/04/19 05:52:06;;;;;;;4.95;4.13;;;;;;;;;;4931895;29;20210;-70
2022/04/19 05:54:34;;;;;;;5.97;5.38;;;;;;;;;;4937764;29;20614;-69
2022/04/19 05:57:01;;;;;;;5.40;4.15;;;;;;;;;;4936013;29;20609;-70
2022/04/19 05:59:28;;;;;;;4.05;3.47;;;;;;;;;;4936691;29;20574;-69
2022/04/19 06:04:57;;;;;;;3.80;3.50;;;;;;;;;;4935314;29;20719;-69
2022/04/19 06:07:25;;;;;;;5.95;3.97;;;;;;;;;;4937963;29;20222;-70
2022/04/19 06:09:53;;;;;;;6.70;4.20;;;;;;;;;;4935087;29;20709;-70
2022/04/19 06:12:20;;;;;;;3.30;3.00;;;;;;;;;;4927875;29;20198;-70
2022/04/19 06:14:47;;;;;;;4.88;3.90;;;;;;;;;;4932597;29;20230;-69
2022/04/19 06:17:16;;;;;;;6.45;3.30;;;;;;;;;;4930832;29;20704;-70
2022/04/19 06:19:43;;;;;;;4.32;3.47;;;;;;;;;;4925931;29;20237;-69
2022/04/19 06:22:10;;;;;;;4.13;3.80;;;;;;;;;;4935416;29;20222;-69
2022/04/19 06:24:37;;;;;;;4.90;4.00;;;;;;;;;;4941652;29;20205;-70
2022/04/19 06:27:08;;;;;;;3.55;3.25;;;;;;;;;;4935163;29;20659;-70
2022/04/19 06:29:35;;;;;;;4.82;3.30;;;;;;;;;;4926009;29;20203;-70
2022/04/19 06:32:02;;;;;;;4.47;4.05;;;;;;;;;;4930936;29;20191;-70
2022/04/19 06:34:29;;;;;;;5.07;3.83;;;;;;;;;;4928202;29;20203;-70
2022/04/19 06:36:56;;;;;;;5.10;3.60;;;;;;;;;;4924734;29;20658;-70
2022/04/19 06:39:23;;;;;;;4.80;3.47;;;;;;;;;;4934013;29;20226;-69
2022/04/19 06:41:50;;;;;;;4.95;3.40;;;;;;;;;;4930983;29;20195;-70
2022/04/19 06:44:19;;;;;;;4.47;3.50;;;;;;;;;;4922271;29;20203;-70
2022/04/19 06:46:47;;;;;;;5.50;2.95;;;;;;;;;;4928010;29;20203;-71
2022/04/19 06:49:14;;;;;;;7.60;3.78;;;;;;;;;;4931862;29;20203;-70
2022/04/19 06:51:41;;;;;;;4.32;3.72;;;;;;;;;;4941264;29;20202;-69
2022/04/19 06:54:09;;;;;;;5.15;4.00;;;;;;;;;;4933878;29;20194;-68
2022/04/19 06:56:36;;;;;;;3.72;3.42;;;;;;;;;;4934565;29;20205;-69
2022/04/19 06:59:03;;;;;;;3.78;3.47;;;;;;;;;;4932675;29;20214;-69
2022/04/19 07:01:31;;;;;;;4.07;3.47;;;;;;;;;;4931045;29;20206;-70
2022/04/19 07:03:58;;;;;;;4.28;3.28;;;;;;;;;;4936261;29;20202;-71
2022/04/19 07:06:25;;;;;;;4.15;3.58;;;;;;;;;;4933284;29;20210;-68
2022/04/19 07:08:52;;;;;;;3.20;2.88;;;;;;;;;;4905510;29;20724;-68
2022/04/19 07:11:20;;;;;;;3.70;3.35;;;;;;;;;;4940643;29;20690;-68
2022/04/19 07:13:47;;;;;;;5.05;3.17;;;;;;;;;;4934295;29;20603;-69
2022/04/19 07:16:14;;;;;;;4.95;4.05;;;;;;;;;;4936081;29;20195;-68
2022/04/19 07:18:42;;;;;;;4.03;3.22;;;;;;;;;;4942482;29;20226;-69
2022/04/19 07:26:38;;;;;;;4.75;4.05;;;;;;;;;;4937845;29;20206;-68
2022/04/19 07:29:05;;;;;;;4.45;3.70;;;;;;;;;;4934051;29;20203;-68
2022/04/19 07:31:33;;;;;;;5.75;3.38;;;;;;;;;;4930520;29;20211;-69
2022/04/19 07:34:01;;;;;;;3.60;3.30;;;;;;;;;;4937370;29;20249;-69
2022/04/19 07:36:28;;;;;;;6.75;4.18;;;;;;;;;;4933892;29;20195;-68
2022/04/19 07:38:57;;;;;;;4.97;4.40;;;;;;;;;;4937748;29;20237;-68
2022/04/19 07:41:25;;;;;;;5.20;3.97;;;;;;;;;;4935302;29;20207;-67
2022/04/19 07:43:52;;;;;;;4.10;3.30;;;;;;;;;;4935306;29;20287;-69
2022/04/19 07:46:19;;;;;;;4.47;3.83;;;;;;;;;;4931718;29;20195;-70
2022/04/19 07:48:47;;;;;;;3.88;3.38;;;;;;;;;;4932778;29;20203;-69
2022/04/19 07:51:16;;;;;;;9.65;4.07;;;;;;;;;;4934908;29;20623;-68
2022/04/19 07:53:43;;;;;;;4.25;3.00;;;;;;;;;;4920170;29;20224;-68
2022/04/19 07:56:10;;;;;;;5.03;4.47;;;;;;;;;;4929133;29;20196;-68
2022/04/19 07:58:37;;;;;;;3.90;3.45;;;;;;;;;;4933101;29;20219;-68
2022/04/19 08:01:05;;;;;;;4.75;3.97;;;;;;;;;;4935285;29;20207;-68
2022/04/19 08:03:32;;;;;;;4.78;3.63;;;;;;;;;;4942861;29;20207;-69
2022/04/19 08:05:59;;;;;;;5.63;3.33;;;;;;;;;;4939152;29;20281;-68
2022/04/19 08:08:27;;;;;;;4.78;4.28;;;;;;;;;;4934334;29;20208;-68
2022/04/19 08:10:55;;;;;;;6.65;4.45;;;;;;;;;;4932604;29;20205;-68
2022/04/19 08:13:22;;;;;;;4.93;3.63;;;;;;;;;;4938221;29;20731;-68
2022/04/19 08:15:49;;;;;;;3.95;3.50;;;;;;;;;;4937673;29;20661;-68
2022/04/19 08:18:18;;;;;;;4.32;3.42;;;;;;;;;;4931750;29;20935;-68
2022/04/19 08:20:46;;;;;;;5.00;3.40;;;;;;;;;;4929030;29;20209;-68
2022/04/19 08:23:13;;;;;;;3.92;3.45;;;;;;;;;;4935408;29;20529;-68
2022/04/19 08:25:43;;;;;;;3.90;3.22;;;;;;;;;;4936520;29;20671;-68
2022/04/19 08:28:10;;;;;;;3.90;3.25;;;;;;;;;;4934366;29;20203;-68
2022/04/19 08:30:37;;;;;;;3.08;2.78;;;;;;;;;;4930561;29;20220;-68
2022/04/19 08:33:05;;;;;;;4.38;3.70;;;;;;;;;;4933548;29;20223;-68
2022/04/19 08:35:32;;;;;;;3.50;3.20;;;;;;;;;;4921980;29;20575;-68
2022/04/19 08:37:59;;;;;;;5.13;2.30;;;;;;;;;;4934137;29;20197;-68
2022/04/19 08:40:26;;;;;;;4.60;3.00;;;;;;;;;;4929392;29;20256;-68
2022/04/19 08:42:56;;;;;;;3.50;3.20;;;;;;;;;;4928218;29;20210;-68
2022/04/19 08:45:23;;;;;;;4.55;2.97;;;;;;;;;;4931700;29;20587;-68
2022/04/19 08:47:51;;;;;;;3.55;2.50;;;;;;;;;;4933103;29;20235;-68
2022/04/19 08:50:19;;;;;;;3.60;3.00;;;;;;;;;;4926057;29;20203;-68
2022/04/19 08:52:47;;;;;;;4.25;2.60;;;;;;;;;;4934698;29;20201;-68
2022/04/19 08:58:01;;;;;;;3.10;2.70;;;;;;;;;;4930751;29;20347;-68
2022/04/19 09:00:28;;;;;;;3.38;3.08;;;;;;;;;;4924723;29;20254;-68
2022/04/19 09:02:57;;;;;;;4.20;3.42;;;;;;;;;;4933395;29;20216;-68
2022/04/19 09:05:26;;;;;;;3.67;3.03;;;;;;;;;;4932292;29;20563;-69
2022/04/19 09:07:54;;;;;;;4.90;3.50;;;;;;;;;;4932786;29;20247;-69
2022/04/19 09:10:27;;;;;;;4.88;3.20;;;;;;;;;;4929745;29;20196;-68
2022/04/19 09:13:05;;;;;;;3.05;2.67;;;;;;;;;;4930969;29;20203;-69
2022/04/19 09:15:33;;;;;;;3.58;3.03;;;;;;;;;;4931189;29;20269;-73
2022/04/19 09:18:00;;;;;;;4.93;3.17;;;;;;;;;;4933772;29;20205;-72
2022/04/19 09:20:27;;;;;;;5.00;3.20;;;;;;;;;;4925851;29;20691;-73
2022/04/19 09:23:01;;;;;;;6.07;3.00;;;;;;;;;;4931179;28;20203;-69
2022/04/19 09:25:29;;;;;;;3.25;2.58;;;;;;;;;;4930180;29;20611;-68
2022/04/19 09:27:58;;;;;;;4.25;3.30;;;;;;;;;;4934537;29;20567;-69
2022/04/19 09:30:27;;;;;;;3.05;2.50;;;;;;;;;;4929325;29;20838;-69
2022/04/19 09:33:07;;;;;;;4.03;2.60;;;;;;;;;;4929772;29;20200;-69
2022/04/19 09:35:35;;;;;;;2.45;2.00;;;;;;;;;;4927422;29;20212;-69
2022/04/19 09:38:02;;;;;;;3.05;2.70;;;;;;;;;;4937971;29;20308;-68
2022/04/19 09:40:30;;;;;;;2.53;2.15;;;;;;;;;;4929593;29;20721;-69
2022/04/19 09:42:57;;;;;;;3.10;2.80;;;;;;;;;;4934045;29;20208;-69
2022/04/19 09:45:25;;;;;;;3.97;2.40;;;;;;;;;;4938319;29;20214;-69
2022/04/19 09:47:54;;;;;;;3.15;2.58;;;;;;;;;;4930019;29;20544;-69
2022/04/19 09:50:21;;;;;;;4.15;3.03;;;;;;;;;;4927950;29;20278;-68
2022/04/19 09:52:51;;;;;;;3.78;2.88;;;;;;;;;;4930869;29;20290;-68
2022/04/19 09:55:18;;;;;;;4.30;3.22;;;;;;;;;;4939970;29;20563;-68
2022/04/19 09:57:48;;;;;;;3.35;2.80;;;;;;;;;;4924650;29;20203;-69
2022/04/19 10:00:17;;;;;;;3.10;2.75;;;;;;;;;;4933780;29;20587;-72
2022/04/19 10:08:20;;;;;;;5.43;3.92;;;;;;;;;;4896815;29;20259;-70
2022/04/19 10:10:48;;;;;;;2.80;2.60;;;;;;;;;;4925148;29;20203;-69
2022/04/19 10:13:17;;;;;;;3.50;2.90;;;;;;;;;;4924342;29;20206;-70
2022/04/19 10:15:44;;;;;;;4.25;2.65;;;;;;;;;;4927486;29;20564;-70
2022/04/19 10:18:12;;;;;;;3.40;2.75;;;;;;;;;;4929891;29;20208;-69
2022/04/19 10:20:41;;;;;;;3.20;2.90;;;;;;;;;;4926748;29;20329;-70
2022/04/19 10:23:09;;;;;;;6.20;2.75;;;;;;;;;;4930812;29;20211;-70
2022/04/19 10:25:44;;;;;;;3.00;2.63;;;;;;;;;;4923221;29;20207;-69
2022/04/19 10:28:12;;;;;;;4.05;2.90;;;;;;;;;;4923457;29;20199;-71
2022/04/19 10:30:40;;;;;;;6.32;2.85;;;;;;;;;;4934810;29;20208;-70
2022/04/19 10:33:26;;;;;;;3.45;2.50;;;;;;;;;;4928970;29;20207;-70
2022/04/19 10:36:08;;;;;;;2.53;2.33;;;;;;;;;;4914320;29;20235;-70
2022/04/19 10:38:36;;;;;;;3.92;3.13;;;;;;;;;;4925678;29;20572;-70
2022/04/19 10:41:04;;;;;;;4.15;2.88;;;;;;;;;;4924471;29;20690;-70
2022/04/19 10:43:31;;;;;;;2.88;2.55;;;;;;;;;;4924536;29;22304;-70
2022/04/19 10:46:13;;;;;;;4.35;2.20;;;;;;;;;;4922433;29;20199;-69
2022/04/19 10:49:01;;;;;;;2.60;2.25;;;;;;;;;;4927124;29;20203;-70
2022/04/19 10:51:32;;;;;;;4.93;1.98;;;;;;;;;;4933621;29;20195;-69
2022/04/19 10:53:59;;;;;;;3.10;2.80;;;;;;;;;;4940378;29;20209;-71
2022/04/19 10:56:26;;;;;;;3.15;2.20;;;;;;;;;;4927106;29;20206;-70
2022/04/19 10:58:54;;;;;;;3.17;2.75;;;;;;;;;;4923466;29;20214;-71
2022/04/19 11:01:31;;;;;;;6.70;3.10;;;;;;;;;;4924828;29;20255;-70
2022/04/19 11:03:58;;;;;;;4.65;2.60;;;;;;;;;;4927057;29;20203;-70
2022/04/19 11:06:34;;;;;;;4.93;2.55;;;;;;;;;;4931536;29;20194;-71
2022/04/19 11:09:28;;;;;;;2.97;2.20;;;;;;;;;;4929015;29;20283;-71
2022/04/19 11:11:58;;;;;;;3.35;1.80;;;;;;;;;;4912036;29;20258;-71
2022/04/19 11:14:43;;;;;;;3.17;2.17;;;;;;;;;;4926411;29;20222;-71
2022/04/19 11:17:21;;;;;;;3.58;2.63;;;;;;;;;;4927107;29;20783;-71
2022/04/19 11:19:52;;;;;;;4.90;2.15;;;;;;;;;;4922147;29;20545;-69
2022/04/19 11:22:29;;;;;;;3.17;2.85;;;;;;;;;;4919881;29;20250;-71
2022/04/19 11:25:06;;;;;;;2.90;2.60;;;;;;;;;;4920542;29;20489;-71
2022/04/19 11:27:52;;;;;;;5.43;2.47;;;;;;;;;;4923712;29;20202;-69
2022/04/19 11:30:19;;;;;;;3.97;3.05;;;;;;;;;;4922642;29;20622;-70
2022/04/19 11:32:50;;;;;;;3.65;2.90;;;;;;;;;;4923281;29;20671;-70
2022/04/19 11:35:18;;;;;;;3.08;2.67;;;;;;;;;;4918628;29;20199;-71
2022/04/19 11:37:47;;;;;;;3.80;3.10;;;;;;;;;;4922832;29;20211;-70
2022/04/19 11:48:38;;;;;;;2.47;2.28;;;;;;;;;;4922595;29;20574;-71
2022/04/19 11:51:07;;;;;;;2.97;2.20;;;;;;;;;;4922026;29;20590;-71
2022/04/19 11:53:36;;;;;;;2.30;2.10;;;;;;;;;;4920903;29;20200;-71
2022/04/19 11:56:03;;;;;;;2.95;2.72;;;;;;;;;;4924584;29;20199;-70
2022/04/19 11:58:31;;;;;;;2.10;1.90;;;;;;;;;;4929037;29;20611;-69
2022/04/19 12:00:59;;;;;;;2.28;2.00;;;;;;;;;;4925934;29;20222;-71
2022/04/19 12:03:27;;;;;;;2.80;2.30;;;;;;;;;;4932753;29;20293;-70
2022/04/19 12:05:55;;;;;;;2.15;1.85;;;;;;;;;;4924412;29;20634;-70
2022/04/19 12:08:33;;;;;;;2.95;2.33;;;;;;;;;;4933074;29;20291;-71
2022/04/19 12:11:01;;;;;;;2.25;2.05;;;;;;;;;;4925934;29;20206;-69
2022/04/19 12:13:28;;;;;;;2.30;2.05;;;;;;;;;;4924356;29;20206;-69
2022/04/19 12:15:56;;;;;;;2.45;2.25;;;;;;;;;;4926181;29;20203;-68
2022/04/19 12:18:32;;;;;;;2.05;1.85;;;;;;;;;;4923748;29;20195;-71
2022/04/19 12:21:00;;;;;;;2.58;2.38;;;;;;;;;;4930646;29;20746;-69
2022/04/19 12:23:27;;;;;;;2.15;1.95;;;;;;;;;;4931664;29;20210;-70
2022/04/19 12:26:03;;;;;;;2.20;1.90;;;;;;;;;;4924038;29;20199;-72
2022/04/19 12:28:42;;;;;;;2.10;1.90;;;;;;;;;;4934929;29;20201;-72
2022/04/19 12:31:09;;;;;;;1.75;1.42;;;;;;;;;;4925676;29;20242;-73
2022/04/19 12:33:37;;;;;;;2.05;1.85;;;;;;;;;;4931119;29;20203;-73
2022/04/19 12:36:12;;;;;;;3.30;1.20;;;;;;;;;;4930729;29;20205;-72
2022/04/19 12:38:39;;;;;;;3.13;1.70;;;;;;;;;;4926595;29;20214;-72
2022/04/19 12:41:16;;;;;;;2.70;1.77;;;;;;;;;;4933180;29;20218;-71
2022/04/19 12:43:44;;;;;;;2.20;2.00;;;;;;;;;;4922071;29;20294;-71
2022/04/19 12:46:14;;;;;;;5.30;2.00;;;;;;;;;;4929357;29;20588;-71
2022/04/19 12:48:41;;;;;;;2.00;1.60;;;;;;;;;;4938394;29;20924;-71
2022/04/19 12:51:08;;;;;;;2.20;2.00;;;;;;;;;;4927230;29;20202;-71
2022/04/19 12:53:40;;;;;;;2.53;1.70;;;;;;;;;;4940713;29;20206;-72
2022/04/19 12:56:10;;;;;;;2.97;1.50;;;;;;;;;;4928495;29;20211;-72
2022/04/19 12:58:44;;;;;;;4.07;2.05;;;;;;;;;;4942633;29;20194;-73
2022/04/19 13:01:12;;;;;;;2.65;1.52;;;;;;;;;;4931365;29;20585;-72
2022/04/19 13:03:39;;;;;;;1.52;1.42;;;;;;;;;;4941064;29;20426;-72
2022/04/19 13:14:30;;;;;;;1.77;1.60;;;;;;;;;;4934959;29;20574;-73
2022/04/19 13:16:58;;;;;;;2.22;1.45;;;;;;;;;;4929606;29;20203;-74
2022/04/19 13:19:25;;;;;;;1.55;1.38;;;;;;;;;;4924393;29;20202;-73
2022/04/19 13:21:52;;;;;;;2.10;1.60;;;;;;;;;;4935481;29;20335;-73
2022/04/19 13:24:19;;;;;;;3.22;1.50;;;;;;;;;;4941514;29;20653;-73
2022/04/19 13:26:46;;;;;;;1.70;1.60;;;;;;;;;;4940579;29;20304;-73
2022/04/19 13:29:13;;;;;;;1.60;1.50;;;;;;;;;;4936951;29;20204;-73
2022/04/19 13:31:42;;;;;;;2.10;1.90;;;;;;;;;;4943235;29;20325;-73
2022/04/19 13:34:10;;;;;;;5.07;1.45;;;;;;;;;;4929151;29;20203;-74
2022/04/19 13:36:37;;;;;;;2.58;1.50;;;;;;;;;;4939604;29;20679;-74
2022/04/19 13:39:06;;;;;;;2.83;1.80;;;;;;;;;;4939305;28;20233;-73
2022/04/19 13:41:36;;;;;;;2.35;1.83;;;;;;;;;;4931120;29;20258;-73
2022/04/19 13:44:03;;;;;;;1.90;1.63;;;;;;;;;;4927406;29;20279;-73
2022/04/19 13:46:30;;;;;;;1.73;1.60;;;;;;;;;;4928823;29;20278;-74
2022/04/19 13:48:59;;;;;;;2.00;1.60;;;;;;;;;;4937723;29;20198;-73
2022/04/19 13:51:26;;;;;;;3.38;1.42;;;;;;;;;;4938457;29;20202;-72
2022/04/19 13:53:53;;;;;;;2.38;1.70;;;;;;;;;;4947585;29;20209;-73
2022/04/19 13:56:20;;;;;;;2.22;1.77;;;;;;;;;;4941462;29;20198;-72
2022/04/19 13:58:47;;;;;;;2.85;1.75;;;;;;;;;;4930269;29;20202;-73
2022/04/19 14:01:15;;;;;;;1.40;1.30;;;;;;;;;;4930388;29;20229;-73
2022/04/19 14:03:42;;;;;;;1.67;1.55;;;;;;;;;;4937847;29;20210;-72
2022/04/19 14:06:10;;;;;;;2.78;1.52;;;;;;;;;;4939678;29;20526;-72
2022/04/19 14:08:37;;;;;;;2.70;1.70;;;;;;;;;;4930913;29;20209;-73
2022/04/19 14:11:05;;;;;;;1.77;1.65;;;;;;;;;;4929318;29;20225;-74
2022/04/19 14:13:33;;;;;;;1.60;1.40;;;;;;;;;;4933853;29;20210;-73
2022/04/19 14:16:00;;;;;;;2.97;1.52;;;;;;;;;;4922717;29;20297;-72
2022/04/19 14:18:28;;;;;;;1.85;1.52;;;;;;;;;;4928128;29;20203;-72
2022/04/19 14:20:55;;;;;;;1.88;1.48;;;;;;;;;;4929429;29;20233;-73
2022/04/19 14:23:24;;;;;;;2.05;1.30;;;;;;;;;;4935458;29;20199;-73
2022/04/19 14:25:51;;;;;;;2.03;1.60;;;;;;;;;;4935715;29;20209;-73
2022/04/19 14:28:18;;;;;;;1.50;1.38;;;;;;;;;;4930306;29;20563;-71
2022/04/19 14:33:30;;;;;;;1.40;1.30;;;;;;;;;;4940364;29;20213;-73
2022/04/19 14:35:58;;;;;;;1.90;1.55;;;;;;;;;;4926828;29;20198;-73
2022/04/19 14:38:26;;;;;;;1.30;1.20;;;;;;;;;;4934518;29;20209;-73
2022/04/19 14:40:53;;;;;;;1.85;1.30;;;;;;;;;;4938467;29;20725;-73
2022/04/19 14:43:20;;;;;;;1.90;1.27;;;;;;;;;;4931565;29;20206;-72
2022/04/19 14:45:47;;;;;;;7.95;1.20;;;;;;;;;;4933429;29;20232;-73
2022/04/19 14:48:14;;;;;;;1.65;0.95;;;;;;;;;;4933847;29;20566;-71
2022/04/19 14:53:22;;;;;;;1.50;1.00;;;;;;;;;;4929943;29;20558;-72
2022/04/19 14:55:51;;;;;;;1.52;1.10;;;;;;;;;;4938504;29;20514;-72
2022/04/19 14:58:18;;;;;;;1.35;0.90;;;;;;;;;;4933060;29;21013;-73
2022/04/19 15:00:45;;;;;;;1.60;1.10;;;;;;;;;;4929627;29;20697;-72
2022/04/19 15:03:12;;;;;;;1.67;1.58;;;;;;;;;;4923146;29;20225;-72
2022/04/19 15:05:39;;;;;;;1.63;1.33;;;;;;;;;;4922362;29;20202;-71
2022/04/19 15:08:06;;;;;;;1.70;1.30;;;;;;;;;;4923782;29;20681;-73
2022/04/19 15:10:33;;;;;;;1.42;1.13;;;;;;;;;;4926618;29;20706;-74
2022/04/19 15:13:02;;;;;;;1.27;1.08;;;;;;;;;;4921290;29;20195;-72
2022/04/19 15:15:29;;;;;;;1.25;1.15;;;;;;;;;;4928116;29;20463;-73
2022/04/19 15:17:56;;;;;;;1.90;1.20;;;;;;;;;;4927454;29;20574;-74
2022/04/19 15:20:23;;;;;;;1.55;1.00;;;;;;;;;;4920949;29;20199;-73
2022/04/19 15:22:50;;;;;;;1.30;1.20;;;;;;;;;;4938567;29;20206;-72
2022/04/19 15:25:17;;;;;;;1.63;1.25;;;;;;;;;;4924920;29;20697;-74
2022/04/19 15:27:46;;;;;;;1.13;0.90;;;;;;;;;;4928443;29;20813;-72
2022/04/19 15:30:15;;;;;;;1.63;1.10;;;;;;;;;;4941888;29;20230;-73
2022/04/19 15:32:42;;;;;;;1.35;1.05;;;;;;;;;;4944300;29;20249;-72
2022/04/19 15:35:09;;;;;;;1.10;1.00;;;;;;;;;;4926128;29;20202;-72
2022/04/19 15:37:36;;;;;;;2.55;1.38;;;;;;;;;;4928748;29;20637;-74